sensor_id;sensor_type;location;lat;lon;timestamp;temperature;humidity
51007;DHT22;37034;47.886;-3.904;2023-09-08T00:01:55;25.20;90.90
51007;DHT22;37034;47.886;-3.904;2023-09-08T00:04:21;25.20;90.90
51007;DHT22;37034;47.886;-3.904;2023-09-08T00:06:48;25.20;90.90
51007;DHT22;37034;47.886;-3.904;2023-09-08T00:09:14;25.20;91.00
51007;DHT22;37034;47.886;-3.904;2023-09-08T00:11:39;25.20;90.90
51007;DHT22;37034;47.886;-3.904;2023-09-08T00:14:05;25.30;91.00
51007;DHT22;37034;47.886;-3.904;2023-09-08T00:16:33;25.30;91.00
51007;DHT22;37034;47.886;-3.904;2023-09-08T00:19:10;25.30;91.00
51007;DHT22;37034;47.886;-3.904;2023-09-08T00:21:36;25.20;91.00
51007;DHT22;37034;47.886;-3.904;2023-09-08T00:24:03;25.20;90.90
51007;DHT22;37034;47.886;-3.904;2023-09-08T00:26:29;25.20;90.90
51007;DHT22;37034;47.886;-3.904;2023-09-08T00:28:55;25.20;91.00
51007;DHT22;37034;47.886;-3.904;2023-09-08T00:31:21;25.20;91.00
51007;DHT22;37034;47.886;-3.904;2023-09-08T00:33:46;25.20;91.00
51007;DHT22;37034;47.886;-3.904;2023-09-08T00:36:12;25.20;91.00
51007;DHT22;37034;47.886;-3.904;2023-09-08T00:38:38;25.10;90.90
51007;DHT22;37034;47.886;-3.904;2023-09-08T00:41:07;25.10;91.00
51007;DHT22;37034;47.886;-3.904;2023-09-08T00:43:32;25.00;91.10
51007;DHT22;37034;47.886;-3.904;2023-09-08T00:45:58;25.00;91.10
51007;DHT22;37034;47.886;-3.904;2023-09-08T00:48:26;25.00;91.20
51007;DHT22;37034;47.886;-3.904;2023-09-08T00:50:51;25.00;91.20
51007;DHT22;37034;47.886;-3.904;2023-09-08T00:53:17;25.00;91.30
51007;DHT22;37034;47.886;-3.904;2023-09-08T00:55:43;25.00;91.20
51007;DHT22;37034;47.886;-3.904;2023-09-08T00:58:11;25.00;91.20
51007;DHT22;37034;47.886;-3.904;2023-09-08T01:00:37;25.00;91.30
51007;DHT22;37034;47.886;-3.904;2023-09-08T01:03:03;25.00;91.20
51007;DHT22;37034;47.886;-3.904;2023-09-08T01:05:29;25.00;91.30
51007;DHT22;37034;47.886;-3.904;2023-09-08T01:07:55;24.90;91.30
51007;DHT22;37034;47.886;-3.904;2023-09-08T01:10:21;24.90;91.60
51007;DHT22;37034;47.886;-3.904;2023-09-08T01:12:47;24.90;91.30
51007;DHT22;37034;47.886;-3.904;2023-09-08T01:15:16;24.90;91.40
51007;DHT22;37034;47.886;-3.904;2023-09-08T01:17:41;24.90;91.40
51007;DHT22;37034;47.886;-3.904;2023-09-08T01:20:17;24.90;91.40
51007;DHT22;37034;47.886;-3.904;2023-09-08T01:25:33;24.80;91.40
51007;DHT22;37034;47.886;-3.904;2023-09-08T01:28:02;24.80;91.40
51007;DHT22;37034;47.886;-3.904;2023-09-08T01:30:30;24.80;91.30
51007;DHT22;37034;47.886;-3.904;2023-09-08T01:32:59;24.70;91.30
51007;DHT22;37034;47.886;-3.904;2023-09-08T01:35:25;24.70;91.40
51007;DHT22;37034;47.886;-3.904;2023-09-08T01:37:51;24.60;91.70
51007;DHT22;37034;47.886;-3.904;2023-09-08T01:40:17;24.70;91.30
51007;DHT22;37034;47.886;-3.904;2023-09-08T01:42:44;24.70;91.40
51007;DHT22;37034;47.886;-3.904;2023-09-08T01:45:10;24.70;91.40
51007;DHT22;37034;47.886;-3.904;2023-09-08T01:47:37;24.70;91.30
51007;DHT22;37034;47.886;-3.904;2023-09-08T01:50:03;24.60;91.20
51007;DHT22;37034;47.886;-3.904;2023-09-08T01:52:29;24.60;91.40
51007;DHT22;37034;47.886;-3.904;2023-09-08T01:54:54;24.60;91.50
51007;DHT22;37034;47.886;-3.904;2023-09-08T01:57:20;24.60;91.40
51007;DHT22;37034;47.886;-3.904;2023-09-08T01:59:46;24.60;91.40
51007;DHT22;37034;47.886;-3.904;2023-09-08T02:02:12;24.60;91.40
51007;DHT22;37034;47.886;-3.904;2023-09-08T02:04:37;24.60;91.30
51007;DHT22;37034;47.886;-3.904;2023-09-08T02:07:03;24.50;91.10
51007;DHT22;37034;47.886;-3.904;2023-09-08T02:09:37;24.50;91.20
51007;DHT22;37034;47.886;-3.904;2023-09-08T02:12:03;24.40;91.30
51007;DHT22;37034;47.886;-3.904;2023-09-08T02:14:30;24.40;91.20
51007;DHT22;37034;47.886;-3.904;2023-09-08T02:16:55;24.40;91.10
51007;DHT22;37034;47.886;-3.904;2023-09-08T02:19:22;24.40;91.30
51007;DHT22;37034;47.886;-3.904;2023-09-08T02:21:47;24.40;91.10
51007;DHT22;37034;47.886;-3.904;2023-09-08T02:24:13;24.30;90.90
51007;DHT22;37034;47.886;-3.904;2023-09-08T02:26:40;24.30;90.90
51007;DHT22;37034;47.886;-3.904;2023-09-08T02:29:05;24.30;91.10
51007;DHT22;37034;47.886;-3.904;2023-09-08T02:31:31;24.20;91.10
51007;DHT22;37034;47.886;-3.904;2023-09-08T02:33:57;24.20;91.00
51007;DHT22;37034;47.886;-3.904;2023-09-08T02:36:23;24.20;90.90
51007;DHT22;37034;47.886;-3.904;2023-09-08T02:38:54;24.20;91.00
51007;DHT22;37034;47.886;-3.904;2023-09-08T02:41:20;24.30;91.00
51007;DHT22;37034;47.886;-3.904;2023-09-08T02:43:47;24.20;91.00
51007;DHT22;37034;47.886;-3.904;2023-09-08T02:46:13;24.30;91.10
51007;DHT22;37034;47.886;-3.904;2023-09-08T02:48:41;24.30;91.10
51007;DHT22;37034;47.886;-3.904;2023-09-08T02:51:07;24.30;91.10
51007;DHT22;37034;47.886;-3.904;2023-09-08T02:53:33;24.30;91.10
51007;DHT22;37034;47.886;-3.904;2023-09-08T02:55:59;24.30;91.10
51007;DHT22;37034;47.886;-3.904;2023-09-08T02:58:25;24.30;91.00
51007;DHT22;37034;47.886;-3.904;2023-09-08T03:00:51;24.30;91.10
51007;DHT22;37034;47.886;-3.904;2023-09-08T03:03:20;24.30;90.90
51007;DHT22;37034;47.886;-3.904;2023-09-08T03:05:46;24.30;90.90
51007;DHT22;37034;47.886;-3.904;2023-09-08T03:08:12;24.30;90.90
51007;DHT22;37034;47.886;-3.904;2023-09-08T03:10:38;24.20;90.90
51007;DHT22;37034;47.886;-3.904;2023-09-08T03:13:04;24.20;90.90
51007;DHT22;37034;47.886;-3.904;2023-09-08T03:15:30;24.20;90.90
51007;DHT22;37034;47.886;-3.904;2023-09-08T03:17:56;24.20;90.90
51007;DHT22;37034;47.886;-3.904;2023-09-08T03:20:24;24.10;90.90
51007;DHT22;37034;47.886;-3.904;2023-09-08T03:22:51;24.20;91.10
51007;DHT22;37034;47.886;-3.904;2023-09-08T03:25:17;24.10;90.90
51007;DHT22;37034;47.886;-3.904;2023-09-08T03:27:43;24.10;90.90
51007;DHT22;37034;47.886;-3.904;2023-09-08T03:30:09;24.10;90.90
51007;DHT22;37034;47.886;-3.904;2023-09-08T03:32:36;24.10;90.90
51007;DHT22;37034;47.886;-3.904;2023-09-08T03:35:02;24.10;90.90
51007;DHT22;37034;47.886;-3.904;2023-09-08T03:37:28;24.00;90.80
51007;DHT22;37034;47.886;-3.904;2023-09-08T03:39:54;24.00;90.80
51007;DHT22;37034;47.886;-3.904;2023-09-08T03:42:20;24.00;90.90
51007;DHT22;37034;47.886;-3.904;2023-09-08T03:44:45;24.00;91.00
51007;DHT22;37034;47.886;-3.904;2023-09-08T03:47:11;24.00;91.00
51007;DHT22;37034;47.886;-3.904;2023-09-08T03:49:36;24.00;91.00
51007;DHT22;37034;47.886;-3.904;2023-09-08T03:52:02;23.90;90.90
51007;DHT22;37034;47.886;-3.904;2023-09-08T03:54:28;24.00;91.00
51007;DHT22;37034;47.886;-3.904;2023-09-08T03:56:54;24.00;91.00
51007;DHT22;37034;47.886;-3.904;2023-09-08T03:59:19;24.00;91.00
51007;DHT22;37034;47.886;-3.904;2023-09-08T04:01:45;24.00;91.00
51007;DHT22;37034;47.886;-3.904;2023-09-08T04:04:11;24.00;91.00
51007;DHT22;37034;47.886;-3.904;2023-09-08T04:06:36;24.10;91.10
51007;DHT22;37034;47.886;-3.904;2023-09-08T04:09:02;24.10;91.10
51007;DHT22;37034;47.886;-3.904;2023-09-08T04:11:28;24.10;91.20
51007;DHT22;37034;47.886;-3.904;2023-09-08T04:13:54;24.10;91.00
51007;DHT22;37034;47.886;-3.904;2023-09-08T04:16:19;24.00;91.00
51007;DHT22;37034;47.886;-3.904;2023-09-08T04:18:45;24.00;91.00
51007;DHT22;37034;47.886;-3.904;2023-09-08T04:21:10;24.00;91.00
51007;DHT22;37034;47.886;-3.904;2023-09-08T04:23:36;24.00;91.00
51007;DHT22;37034;47.886;-3.904;2023-09-08T04:26:02;24.00;91.00
51007;DHT22;37034;47.886;-3.904;2023-09-08T04:28:28;24.00;91.00
51007;DHT22;37034;47.886;-3.904;2023-09-08T04:30:54;24.00;91.00
51007;DHT22;37034;47.886;-3.904;2023-09-08T04:33:19;24.00;91.00
51007;DHT22;37034;47.886;-3.904;2023-09-08T04:35:45;24.10;90.90
51007;DHT22;37034;47.886;-3.904;2023-09-08T04:38:11;24.00;90.80
51007;DHT22;37034;47.886;-3.904;2023-09-08T04:40:40;24.10;90.90
51007;DHT22;37034;47.886;-3.904;2023-09-08T04:43:05;24.00;91.00
51007;DHT22;37034;47.886;-3.904;2023-09-08T04:45:31;24.10;91.00
51007;DHT22;37034;47.886;-3.904;2023-09-08T04:47:57;24.00;91.00
51007;DHT22;37034;47.886;-3.904;2023-09-08T04:50:22;24.00;90.90
51007;DHT22;37034;47.886;-3.904;2023-09-08T04:52:48;24.10;90.90
51007;DHT22;37034;47.886;-3.904;2023-09-08T04:55:14;24.00;90.80
51007;DHT22;37034;47.886;-3.904;2023-09-08T04:57:39;24.00;90.90
51007;DHT22;37034;47.886;-3.904;2023-09-08T05:00:06;24.00;90.80
51007;DHT22;37034;47.886;-3.904;2023-09-08T05:02:32;24.00;90.70
51007;DHT22;37034;47.886;-3.904;2023-09-08T05:04:58;23.90;90.70
51007;DHT22;37034;47.886;-3.904;2023-09-08T05:07:25;23.90;90.60
51007;DHT22;37034;47.886;-3.904;2023-09-08T05:09:51;23.90;90.50
51007;DHT22;37034;47.886;-3.904;2023-09-08T05:12:16;23.80;90.50
51007;DHT22;37034;47.886;-3.904;2023-09-08T05:14:42;23.80;90.60
51007;DHT22;37034;47.886;-3.904;2023-09-08T05:17:08;23.80;90.60
51007;DHT22;37034;47.886;-3.904;2023-09-08T05:19:33;23.80;90.60
51007;DHT22;37034;47.886;-3.904;2023-09-08T05:21:59;23.80;90.60
51007;DHT22;37034;47.886;-3.904;2023-09-08T05:24:24;23.80;90.50
51007;DHT22;37034;47.886;-3.904;2023-09-08T05:26:52;23.80;90.50
51007;DHT22;37034;47.886;-3.904;2023-09-08T05:29:17;23.80;90.40
51007;DHT22;37034;47.886;-3.904;2023-09-08T05:31:43;23.80;90.40
51007;DHT22;37034;47.886;-3.904;2023-09-08T05:34:09;23.80;90.40
51007;DHT22;37034;47.886;-3.904;2023-09-08T05:36:35;23.80;90.40
51007;DHT22;37034;47.886;-3.904;2023-09-08T05:39:03;23.80;90.40
51007;DHT22;37034;47.886;-3.904;2023-09-08T05:41:29;23.80;90.30
51007;DHT22;37034;47.886;-3.904;2023-09-08T05:43:55;23.80;90.40
51007;DHT22;37034;47.886;-3.904;2023-09-08T05:46:20;23.80;90.30
51007;DHT22;37034;47.886;-3.904;2023-09-08T05:48:46;23.70;90.20
51007;DHT22;37034;47.886;-3.904;2023-09-08T05:51:14;23.70;90.20
51007;DHT22;37034;47.886;-3.904;2023-09-08T05:53:42;23.80;90.20
51007;DHT22;37034;47.886;-3.904;2023-09-08T05:56:08;23.80;90.20
51007;DHT22;37034;47.886;-3.904;2023-09-08T05:58:34;23.80;90.20
51007;DHT22;37034;47.886;-3.904;2023-09-08T06:01:03;23.80;90.20
51007;DHT22;37034;47.886;-3.904;2023-09-08T06:03:29;23.80;90.20
51007;DHT22;37034;47.886;-3.904;2023-09-08T06:05:55;23.80;90.20
51007;DHT22;37034;47.886;-3.904;2023-09-08T06:08:21;23.90;90.10
51007;DHT22;37034;47.886;-3.904;2023-09-08T06:10:47;23.90;90.10
51007;DHT22;37034;47.886;-3.904;2023-09-08T06:13:13;23.90;90.30
51007;DHT22;37034;47.886;-3.904;2023-09-08T06:15:38;23.90;90.30
51007;DHT22;37034;47.886;-3.904;2023-09-08T06:18:05;23.90;90.30
51007;DHT22;37034;47.886;-3.904;2023-09-08T06:20:30;24.00;90.30
51007;DHT22;37034;47.886;-3.904;2023-09-08T06:22:56;24.00;90.30
51007;DHT22;37034;47.886;-3.904;2023-09-08T06:25:22;24.00;90.60
51007;DHT22;37034;47.886;-3.904;2023-09-08T06:27:48;24.10;90.30
51007;DHT22;37034;47.886;-3.904;2023-09-08T06:30:13;24.10;90.50
51007;DHT22;37034;47.886;-3.904;2023-09-08T06:32:41;24.10;90.30
51007;DHT22;37034;47.886;-3.904;2023-09-08T06:35:07;24.10;90.40
51007;DHT22;37034;47.886;-3.904;2023-09-08T06:37:36;24.10;90.30
51007;DHT22;37034;47.886;-3.904;2023-09-08T06:40:02;24.20;90.40
51007;DHT22;37034;47.886;-3.904;2023-09-08T06:42:28;24.20;90.20
51007;DHT22;37034;47.886;-3.904;2023-09-08T06:44:54;24.30;90.30
51007;DHT22;37034;47.886;-3.904;2023-09-08T06:47:19;24.30;90.20
51007;DHT22;37034;47.886;-3.904;2023-09-08T06:49:45;24.30;90.30
51007;DHT22;37034;47.886;-3.904;2023-09-08T06:52:10;24.40;90.30
51007;DHT22;37034;47.886;-3.904;2023-09-08T06:54:36;24.40;90.30
51007;DHT22;37034;47.886;-3.904;2023-09-08T06:57:02;24.40;90.30
51007;DHT22;37034;47.886;-3.904;2023-09-08T06:59:27;24.40;90.40
51007;DHT22;37034;47.886;-3.904;2023-09-08T07:01:53;24.50;90.50
51007;DHT22;37034;47.886;-3.904;2023-09-08T07:04:19;24.60;90.60
51007;DHT22;37034;47.886;-3.904;2023-09-08T07:06:44;24.60;90.60
51007;DHT22;37034;47.886;-3.904;2023-09-08T07:09:12;24.70;90.60
51007;DHT22;37034;47.886;-3.904;2023-09-08T07:11:37;24.80;90.60
51007;DHT22;37034;47.886;-3.904;2023-09-08T07:14:03;24.90;90.70
51007;DHT22;37034;47.886;-3.904;2023-09-08T07:16:29;25.00;90.80
51007;DHT22;37034;47.886;-3.904;2023-09-08T07:18:55;25.00;90.70
51007;DHT22;37034;47.886;-3.904;2023-09-08T07:21:21;25.10;90.70
51007;DHT22;37034;47.886;-3.904;2023-09-08T07:23:46;25.20;90.70
51007;DHT22;37034;47.886;-3.904;2023-09-08T07:26:12;25.30;90.60
51007;DHT22;37034;47.886;-3.904;2023-09-08T07:28:38;25.30;90.40
51007;DHT22;37034;47.886;-3.904;2023-09-08T07:31:05;25.30;90.30
51007;DHT22;37034;47.886;-3.904;2023-09-08T07:33:32;25.30;90.40
51007;DHT22;37034;47.886;-3.904;2023-09-08T07:35:57;25.30;90.70
51007;DHT22;37034;47.886;-3.904;2023-09-08T07:38:24;25.40;90.80
51007;DHT22;37034;47.886;-3.904;2023-09-08T07:40:50;25.50;90.80
51007;DHT22;37034;47.886;-3.904;2023-09-08T07:43:16;25.50;90.80
51007;DHT22;37034;47.886;-3.904;2023-09-08T07:45:41;25.50;90.80
51007;DHT22;37034;47.886;-3.904;2023-09-08T07:48:07;25.60;90.90
51007;DHT22;37034;47.886;-3.904;2023-09-08T07:50:33;25.70;90.90
51007;DHT22;37034;47.886;-3.904;2023-09-08T07:52:58;25.70;91.00
51007;DHT22;37034;47.886;-3.904;2023-09-08T07:55:24;25.70;91.10
51007;DHT22;37034;47.886;-3.904;2023-09-08T07:57:54;25.80;91.10
51007;DHT22;37034;47.886;-3.904;2023-09-08T08:00:20;25.80;91.00
51007;DHT22;37034;47.886;-3.904;2023-09-08T08:02:48;25.90;90.90
51007;DHT22;37034;47.886;-3.904;2023-09-08T08:05:14;25.90;90.70
51007;DHT22;37034;47.886;-3.904;2023-09-08T08:08:06;25.90;90.70
51007;DHT22;37034;47.886;-3.904;2023-09-08T08:11:15;26.00;90.60
51007;DHT22;37034;47.886;-3.904;2023-09-08T08:13:51;26.10;90.90
51007;DHT22;37034;47.886;-3.904;2023-09-08T08:16:17;26.20;91.10
51007;DHT22;37034;47.886;-3.904;2023-09-08T08:18:43;26.30;90.60
51007;DHT22;37034;47.886;-3.904;2023-09-08T08:21:08;26.40;90.70
51007;DHT22;37034;47.886;-3.904;2023-09-08T08:23:34;26.40;90.70
51007;DHT22;37034;47.886;-3.904;2023-09-08T08:26:00;26.40;90.30
51007;DHT22;37034;47.886;-3.904;2023-09-08T08:28:26;26.50;90.30
51007;DHT22;37034;47.886;-3.904;2023-09-08T08:30:52;26.50;90.40
51007;DHT22;37034;47.886;-3.904;2023-09-08T08:33:18;26.60;90.60
51007;DHT22;37034;47.886;-3.904;2023-09-08T08:35:49;26.70;90.60
51007;DHT22;37034;47.886;-3.904;2023-09-08T08:38:15;26.80;90.30
51007;DHT22;37034;47.886;-3.904;2023-09-08T08:40:41;26.90;90.50
51007;DHT22;37034;47.886;-3.904;2023-09-08T08:43:07;27.00;90.70
51007;DHT22;37034;47.886;-3.904;2023-09-08T08:45:34;27.20;90.70
51007;DHT22;37034;47.886;-3.904;2023-09-08T08:48:02;27.20;90.40
51007;DHT22;37034;47.886;-3.904;2023-09-08T08:50:29;27.30;90.40
51007;DHT22;37034;47.886;-3.904;2023-09-08T08:52:56;27.40;90.30
51007;DHT22;37034;47.886;-3.904;2023-09-08T08:55:25;27.50;90.30
51007;DHT22;37034;47.886;-3.904;2023-09-08T08:57:51;27.60;90.10
51007;DHT22;37034;47.886;-3.904;2023-09-08T09:00:18;27.60;89.90
51007;DHT22;37034;47.886;-3.904;2023-09-08T09:02:44;27.70;90.40
51007;DHT22;37034;47.886;-3.904;2023-09-08T09:05:13;27.80;90.40
51007;DHT22;37034;47.886;-3.904;2023-09-08T09:07:43;28.00;90.50
51007;DHT22;37034;47.886;-3.904;2023-09-08T09:10:09;28.10;90.40
51007;DHT22;37034;47.886;-3.904;2023-09-08T09:12:38;28.30;90.00
51007;DHT22;37034;47.886;-3.904;2023-09-08T09:15:05;28.40;90.00
51007;DHT22;37034;47.886;-3.904;2023-09-08T09:17:34;28.40;89.50
51007;DHT22;37034;47.886;-3.904;2023-09-08T09:20:27;28.40;87.60
51007;DHT22;37034;47.886;-3.904;2023-09-08T09:23:29;28.40;87.60
51007;DHT22;37034;47.886;-3.904;2023-09-08T09:25:55;28.50;88.20
51007;DHT22;37034;47.886;-3.904;2023-09-08T09:28:21;28.50;88.70
51007;DHT22;37034;47.886;-3.904;2023-09-08T09:30:49;28.50;87.30
51007;DHT22;37034;47.886;-3.904;2023-09-08T09:33:17;28.70;88.80
51007;DHT22;37034;47.886;-3.904;2023-09-08T09:35:51;28.70;87.60
51007;DHT22;37034;47.886;-3.904;2023-09-08T09:38:17;28.80;87.50
51007;DHT22;37034;47.886;-3.904;2023-09-08T09:40:45;28.80;87.60
51007;DHT22;37034;47.886;-3.904;2023-09-08T09:43:14;28.80;88.20
51007;DHT22;37034;47.886;-3.904;2023-09-08T09:45:41;28.90;88.30
51007;DHT22;37034;47.886;-3.904;2023-09-08T09:48:10;29.00;88.20
51007;DHT22;37034;47.886;-3.904;2023-09-08T09:50:41;29.00;88.30
51007;DHT22;37034;47.886;-3.904;2023-09-08T09:53:15;29.10;88.10
51007;DHT22;37034;47.886;-3.904;2023-09-08T09:55:42;29.20;88.30
51007;DHT22;37034;47.886;-3.904;2023-09-08T09:58:09;29.30;88.40
51007;DHT22;37034;47.886;-3.904;2023-09-08T10:00:36;29.40;87.80
51007;DHT22;37034;47.886;-3.904;2023-09-08T10:03:04;29.50;87.30
51007;DHT22;37034;47.886;-3.904;2023-09-08T10:05:30;29.50;87.00
51007;DHT22;37034;47.886;-3.904;2023-09-08T10:07:55;29.50;86.80
51007;DHT22;37034;47.886;-3.904;2023-09-08T10:10:22;29.50;84.60
51007;DHT22;37034;47.886;-3.904;2023-09-08T10:12:56;29.60;86.50
51007;DHT22;37034;47.886;-3.904;2023-09-08T10:15:24;29.60;86.00
51007;DHT22;37034;47.886;-3.904;2023-09-08T10:17:56;29.60;86.10
51007;DHT22;37034;47.886;-3.904;2023-09-08T10:20:26;29.50;85.80
51007;DHT22;37034;47.886;-3.904;2023-09-08T10:23:07;29.60;86.20
51007;DHT22;37034;47.886;-3.904;2023-09-08T10:25:39;29.50;85.00
51007;DHT22;37034;47.886;-3.904;2023-09-08T10:28:07;29.50;85.00
51007;DHT22;37034;47.886;-3.904;2023-09-08T10:30:33;29.50;84.90
51007;DHT22;37034;47.886;-3.904;2023-09-08T10:33:00;29.40;83.90
51007;DHT22;37034;47.886;-3.904;2023-09-08T10:35:27;29.50;85.30
51007;DHT22;37034;47.886;-3.904;2023-09-08T10:38:25;29.50;85.80
51007;DHT22;37034;47.886;-3.904;2023-09-08T10:43:40;29.60;84.90
51007;DHT22;37034;47.886;-3.904;2023-09-08T10:46:10;29.60;86.00
51007;DHT22;37034;47.886;-3.904;2023-09-08T10:48:43;29.70;85.90
51007;DHT22;37034;47.886;-3.904;2023-09-08T10:51:13;29.70;85.60
51007;DHT22;37034;47.886;-3.904;2023-09-08T10:53:39;29.80;85.60
51007;DHT22;37034;47.886;-3.904;2023-09-08T10:56:05;29.80;85.50
51007;DHT22;37034;47.886;-3.904;2023-09-08T10:58:34;29.80;85.30
51007;DHT22;37034;47.886;-3.904;2023-09-08T11:01:13;29.80;84.40
51007;DHT22;37034;47.886;-3.904;2023-09-08T11:06:08;29.90;84.90
51007;DHT22;37034;47.886;-3.904;2023-09-08T11:08:41;30.00;85.00
51007;DHT22;37034;47.886;-3.904;2023-09-08T11:11:07;30.00;84.80
51007;DHT22;37034;47.886;-3.904;2023-09-08T11:13:33;29.90;84.30
51007;DHT22;37034;47.886;-3.904;2023-09-08T11:15:58;29.80;84.20
51007;DHT22;37034;47.886;-3.904;2023-09-08T11:18:31;29.90;83.70
51007;DHT22;37034;47.886;-3.904;2023-09-08T11:20:57;29.90;84.50
51007;DHT22;37034;47.886;-3.904;2023-09-08T11:23:24;29.90;84.90
51007;DHT22;37034;47.886;-3.904;2023-09-08T11:25:50;29.90;85.20
51007;DHT22;37034;47.886;-3.904;2023-09-08T11:28:21;30.00;84.90
51007;DHT22;37034;47.886;-3.904;2023-09-08T11:30:48;30.00;85.10
51007;DHT22;37034;47.886;-3.904;2023-09-08T11:33:15;30.00;84.90
51007;DHT22;37034;47.886;-3.904;2023-09-08T11:35:40;30.00;85.20
51007;DHT22;37034;47.886;-3.904;2023-09-08T11:38:10;30.00;85.50
51007;DHT22;37034;47.886;-3.904;2023-09-08T11:40:36;30.00;85.50
51007;DHT22;37034;47.886;-3.904;2023-09-08T11:43:02;30.00;85.50
51007;DHT22;37034;47.886;-3.904;2023-09-08T11:45:30;29.90;85.70
51007;DHT22;37034;47.886;-3.904;2023-09-08T11:47:56;29.90;85.60
51007;DHT22;37034;47.886;-3.904;2023-09-08T11:50:23;29.90;85.80
51007;DHT22;37034;47.886;-3.904;2023-09-08T11:52:53;29.90;86.20
51007;DHT22;37034;47.886;-3.904;2023-09-08T11:55:21;29.90;86.10
51007;DHT22;37034;47.886;-3.904;2023-09-08T11:57:52;30.00;85.60
51007;DHT22;37034;47.886;-3.904;2023-09-08T12:00:24;29.90;85.10
51007;DHT22;37034;47.886;-3.904;2023-09-08T12:02:51;29.80;85.20
51007;DHT22;37034;47.886;-3.904;2023-09-08T12:07:47;29.80;86.50
51007;DHT22;37034;47.886;-3.904;2023-09-08T12:10:13;29.80;86.10
51007;DHT22;37034;47.886;-3.904;2023-09-08T12:12:50;29.80;86.10
51007;DHT22;37034;47.886;-3.904;2023-09-08T12:15:35;29.80;85.90
51007;DHT22;37034;47.886;-3.904;2023-09-08T12:18:09;29.70;85.80
51007;DHT22;37034;47.886;-3.904;2023-09-08T12:20:37;29.70;85.40
51007;DHT22;37034;47.886;-3.904;2023-09-08T12:23:05;29.60;85.40
51007;DHT22;37034;47.886;-3.904;2023-09-08T12:25:33;29.60;85.30
51007;DHT22;37034;47.886;-3.904;2023-09-08T12:28:00;29.60;85.20
51007;DHT22;37034;47.886;-3.904;2023-09-08T12:30:26;29.50;85.30
51007;DHT22;37034;47.886;-3.904;2023-09-08T12:32:58;29.50;85.30
51007;DHT22;37034;47.886;-3.904;2023-09-08T12:35:24;29.60;85.40
51007;DHT22;37034;47.886;-3.904;2023-09-08T12:40:24;29.60;85.60
51007;DHT22;37034;47.886;-3.904;2023-09-08T12:42:50;29.70;85.80
51007;DHT22;37034;47.886;-3.904;2023-09-08T12:45:15;29.80;85.90
51007;DHT22;37034;47.886;-3.904;2023-09-08T12:47:41;29.90;85.90
51007;DHT22;37034;47.886;-3.904;2023-09-08T12:50:08;30.00;86.00
51007;DHT22;37034;47.886;-3.904;2023-09-08T12:52:35;30.00;85.90
51007;DHT22;37034;47.886;-3.904;2023-09-08T12:55:00;30.10;85.20
51007;DHT22;37034;47.886;-3.904;2023-09-08T12:57:26;30.10;85.10
51007;DHT22;37034;47.886;-3.904;2023-09-08T12:59:52;30.10;85.10
51007;DHT22;37034;47.886;-3.904;2023-09-08T13:02:18;30.10;84.30
51007;DHT22;37034;47.886;-3.904;2023-09-08T13:04:43;30.20;84.70
51007;DHT22;37034;47.886;-3.904;2023-09-08T13:07:15;30.10;83.20
51007;DHT22;37034;47.886;-3.904;2023-09-08T13:09:41;30.10;84.50
51007;DHT22;37034;47.886;-3.904;2023-09-08T13:12:06;30.00;84.70
51007;DHT22;37034;47.886;-3.904;2023-09-08T13:14:34;30.00;85.20
51007;DHT22;37034;47.886;-3.904;2023-09-08T13:17:00;30.00;85.60
51007;DHT22;37034;47.886;-3.904;2023-09-08T13:19:26;30.00;86.10
51007;DHT22;37034;47.886;-3.904;2023-09-08T13:21:52;30.10;85.20
51007;DHT22;37034;47.886;-3.904;2023-09-08T13:24:17;30.10;84.80
51007;DHT22;37034;47.886;-3.904;2023-09-08T13:26:43;30.00;83.80
51007;DHT22;37034;47.886;-3.904;2023-09-08T13:29:08;29.90;83.60
51007;DHT22;37034;47.886;-3.904;2023-09-08T13:31:34;29.80;84.20
51007;DHT22;37034;47.886;-3.904;2023-09-08T13:33:59;29.80;84.70
51007;DHT22;37034;47.886;-3.904;2023-09-08T13:36:25;29.80;86.10
51007;DHT22;37034;47.886;-3.904;2023-09-08T13:38:51;29.90;85.40
51007;DHT22;37034;47.886;-3.904;2023-09-08T13:41:17;29.90;85.90
51007;DHT22;37034;47.886;-3.904;2023-09-08T13:43:42;29.90;85.20
51007;DHT22;37034;47.886;-3.904;2023-09-08T13:46:08;29.80;85.90
51007;DHT22;37034;47.886;-3.904;2023-09-08T13:48:33;29.80;85.30
51007;DHT22;37034;47.886;-3.904;2023-09-08T13:51:03;29.80;85.90
51007;DHT22;37034;47.886;-3.904;2023-09-08T13:53:29;29.80;85.40
51007;DHT22;37034;47.886;-3.904;2023-09-08T13:55:56;29.70;85.40
51007;DHT22;37034;47.886;-3.904;2023-09-08T13:58:22;29.60;85.70
51007;DHT22;37034;47.886;-3.904;2023-09-08T14:00:47;29.60;86.00
51007;DHT22;37034;47.886;-3.904;2023-09-08T14:03:19;29.60;86.30
51007;DHT22;37034;47.886;-3.904;2023-09-08T14:05:45;29.70;86.00
51007;DHT22;37034;47.886;-3.904;2023-09-08T14:08:10;29.60;86.10
51007;DHT22;37034;47.886;-3.904;2023-09-08T14:10:36;29.60;87.00
51007;DHT22;37034;47.886;-3.904;2023-09-08T14:13:02;29.60;86.20
51007;DHT22;37034;47.886;-3.904;2023-09-08T14:15:27;29.50;86.10
51007;DHT22;37034;47.886;-3.904;2023-09-08T14:17:53;29.50;86.40
51007;DHT22;37034;47.886;-3.904;2023-09-08T14:20:19;29.30;85.50
51007;DHT22;37034;47.886;-3.904;2023-09-08T14:22:44;29.40;86.40
51007;DHT22;37034;47.886;-3.904;2023-09-08T14:25:10;29.40;86.60
51007;DHT22;37034;47.886;-3.904;2023-09-08T14:27:36;29.50;87.20
51007;DHT22;37034;47.886;-3.904;2023-09-08T14:30:03;29.70;87.20
51007;DHT22;37034;47.886;-3.904;2023-09-08T14:32:30;29.80;87.30
51007;DHT22;37034;47.886;-3.904;2023-09-08T14:34:55;29.90;87.10
51007;DHT22;37034;47.886;-3.904;2023-09-08T14:37:22;30.00;87.10
51007;DHT22;37034;47.886;-3.904;2023-09-08T14:39:48;30.10;85.60
51007;DHT22;37034;47.886;-3.904;2023-09-08T14:42:13;30.10;85.60
51007;DHT22;37034;47.886;-3.904;2023-09-08T14:44:40;30.10;85.10
51007;DHT22;37034;47.886;-3.904;2023-09-08T14:47:06;30.10;84.20
51007;DHT22;37034;47.886;-3.904;2023-09-08T14:49:32;30.20;84.00
51007;DHT22;37034;47.886;-3.904;2023-09-08T14:51:57;30.30;84.20
51007;DHT22;37034;47.886;-3.904;2023-09-08T14:54:23;30.40;83.00
51007;DHT22;37034;47.886;-3.904;2023-09-08T14:56:49;30.40;83.80
51007;DHT22;37034;47.886;-3.904;2023-09-08T14:59:15;30.50;83.20
51007;DHT22;37034;47.886;-3.904;2023-09-08T15:01:41;30.50;83.40
51007;DHT22;37034;47.886;-3.904;2023-09-08T15:04:08;30.60;83.40
51007;DHT22;37034;47.886;-3.904;2023-09-08T15:06:33;30.60;84.10
51007;DHT22;37034;47.886;-3.904;2023-09-08T15:08:59;30.60;84.00
51007;DHT22;37034;47.886;-3.904;2023-09-08T15:11:24;30.80;83.30
51007;DHT22;37034;47.886;-3.904;2023-09-08T15:13:50;30.80;82.10
51007;DHT22;37034;47.886;-3.904;2023-09-08T15:16:15;30.80;82.50
51007;DHT22;37034;47.886;-3.904;2023-09-08T15:18:41;30.80;81.80
51007;DHT22;37034;47.886;-3.904;2023-09-08T15:21:07;30.80;82.40
51007;DHT22;37034;47.886;-3.904;2023-09-08T15:23:33;30.80;82.30
51007;DHT22;37034;47.886;-3.904;2023-09-08T15:25:58;30.90;82.30
51007;DHT22;37034;47.886;-3.904;2023-09-08T15:28:24;30.90;81.60